createdAt,value
2022-12-20T00:01:10.528Z,20.6
2022-12-20T00:02:26.797Z,19.7
2022-12-20T00:03:43.000Z,18.5
2022-12-20T00:04:59.385Z,19.4
2022-12-20T00:06:15.696Z,18.3
2022-12-20T00:07:32.003Z,20.6
2022-12-20T00:08:48.287Z,18.6
2022-12-20T00:10:03.587Z,19.1
2022-12-20T00:12:36.184Z,17.5
2022-12-20T00:13:52.469Z,18.9
2022-12-20T00:15:08.779Z,20.4
2022-12-20T00:16:25.061Z,19.4
2022-12-20T00:17:41.352Z,19.5
2022-12-20T00:18:57.648Z,19.7
2022-12-20T00:20:13.942Z,19.5
2022-12-20T00:21:30.230Z,19.7
2022-12-20T00:22:46.545Z,17.6
2022-12-20T00:24:02.840Z,21.1
2022-12-20T00:25:19.124Z,19.3
2022-12-20T00:26:34.421Z,19.5
2022-12-20T00:27:50.722Z,19.4
2022-12-20T00:29:07.022Z,19.9
2022-12-20T00:30:23.321Z,17.8
2022-12-20T00:31:39.604Z,18.7
2022-12-20T00:32:55.914Z,19
2022-12-20T00:34:12.195Z,18.1
2022-12-20T00:35:28.499Z,18.2
2022-12-20T00:36:44.785Z,18.9
2022-12-20T00:38:01.084Z,19.6
2022-12-20T00:39:17.387Z,19.1
2022-12-20T00:40:33.664Z,18.9
2022-12-20T00:41:49.965Z,19.6
2022-12-20T00:43:05.293Z,18
2022-12-20T00:44:21.567Z,17.6
2022-12-20T00:45:37.873Z,17.2
2022-12-20T00:46:54.155Z,19.8
2022-12-20T00:48:10.446Z,18.6
2022-12-20T00:49:26.745Z,18.1
2022-12-20T00:50:43.033Z,19.5
2022-12-20T00:51:59.328Z,18.1
2022-12-20T00:53:15.623Z,18
2022-12-20T00:54:31.936Z,19.6
2022-12-20T00:55:48.214Z,19.4
2022-12-20T00:57:04.513Z,18.5
2022-12-20T00:58:20.800Z,16.4
2022-12-20T00:59:36.140Z,17.1
2022-12-20T01:00:52.419Z,17.9
2022-12-20T01:02:08.719Z,18.3
2022-12-20T01:03:25.023Z,16.6
2022-12-20T01:04:41.289Z,18.8
2022-12-20T01:05:57.000Z,17
2022-12-20T01:07:13.894Z,18.3
2022-12-20T01:08:30.187Z,20.3
2022-12-20T01:09:46.470Z,17.6
2022-12-20T01:11:02.761Z,17.7
2022-12-20T01:12:19.080Z,17.6
2022-12-20T01:13:35.383Z,20.1
2022-12-20T01:14:51.653Z,17.3
2022-12-20T01:16:08.073Z,20.4
2022-12-20T01:17:24.362Z,18.6
2022-12-20T01:18:40.664Z,19.6
2022-12-20T01:19:56.961Z,19.2
2022-12-20T01:21:13.259Z,19.6
2022-12-20T01:22:29.538Z,18.2
2022-12-20T01:23:45.841Z,20.1
2022-12-20T01:25:02.125Z,16.7
2022-12-20T01:26:18.420Z,19.2
2022-12-20T01:27:34.718Z,17.6
2022-12-20T01:28:51.017Z,18.8
2022-12-20T01:30:07.317Z,19.1
2022-12-20T01:31:23.608Z,18
2022-12-20T01:32:38.921Z,16.5
2022-12-20T01:33:55.201Z,17.5
2022-12-20T01:35:11.500Z,17.4
2022-12-20T01:36:27.817Z,17.4
2022-12-20T01:37:44.089Z,19.7
2022-12-20T01:39:00.406Z,20.2
2022-12-20T01:40:16.704Z,19.7
2022-12-20T01:41:32.969Z,18.1
2022-12-20T01:42:49.260Z,19.7
2022-12-20T01:44:05.559Z,19.2
2022-12-20T01:45:21.868Z,18.4
2022-12-20T01:46:38.155Z,19
2022-12-20T01:47:54.444Z,16.9
2022-12-20T01:49:09.754Z,18.3
2022-12-20T01:50:26.060Z,18.7
2022-12-20T01:51:42.355Z,18
2022-12-20T01:52:58.637Z,16.9
2022-12-20T01:54:14.925Z,18
2022-12-20T01:55:31.221Z,17.6
2022-12-20T01:56:47.524Z,18.8
2022-12-20T01:58:03.835Z,16
2022-12-20T01:59:20.110Z,17.9
2022-12-20T02:01:52.723Z,18
2022-12-20T02:03:09.004Z,18.9
2022-12-20T02:04:25.309Z,19.6
2022-12-20T02:05:40.608Z,19.1
2022-12-20T02:06:56.917Z,18.6
2022-12-20T02:08:13.192Z,17.5
2022-12-20T02:09:29.478Z,17.3
2022-12-20T02:10:45.783Z,18.3
2022-12-20T02:12:02.090Z,19.5
2022-12-20T02:13:18.362Z,18.6
2022-12-20T02:14:34.669Z,18.1
2022-12-20T02:15:50.945Z,17.3
2022-12-20T02:17:07.250Z,17.4
2022-12-20T02:18:23.533Z,17.2
2022-12-20T02:19:39.856Z,18.5
2022-12-20T02:20:56.132Z,17.5
2022-12-20T02:22:11.439Z,18.7
2022-12-20T02:23:27.738Z,17.6
2022-12-20T02:24:44.029Z,19
2022-12-20T02:26:00.321Z,18.4
2022-12-20T02:27:16.636Z,16.8
2022-12-20T02:28:32.920Z,16.8
2022-12-20T02:29:49.215Z,18.8
2022-12-20T02:31:05.518Z,17.3
2022-12-20T02:32:21.804Z,16.9
2022-12-20T02:33:38.088Z,16.3
2022-12-20T02:34:54.395Z,20.6
2022-12-20T02:36:10.685Z,18.3
2022-12-20T02:37:26.991Z,17.2
2022-12-20T02:38:42.277Z,16.9
2022-12-20T02:39:58.589Z,16.5
2022-12-20T02:41:14.886Z,18.3
2022-12-20T02:42:31.180Z,17.3
2022-12-20T02:43:47.474Z,16.9
2022-12-20T02:45:03.769Z,18.3
2022-12-20T02:46:19.090Z,19.4
2022-12-20T02:47:35.380Z,18.5
2022-12-20T02:48:51.658Z,20.4
2022-12-20T02:50:07.964Z,18.9
2022-12-20T02:51:24.253Z,19.1
2022-12-20T02:52:40.552Z,19.4
2022-12-20T02:53:56.834Z,18.2
2022-12-20T02:55:13.139Z,18.7
2022-12-20T02:56:29.423Z,17.4
2022-12-20T02:57:45.718Z,21
2022-12-20T02:59:02.020Z,18.6
2022-12-20T03:00:18.305Z,17.6
2022-12-20T03:01:34.613Z,19.1
2022-12-20T03:02:49.908Z,18.7
2022-12-20T03:04:06.213Z,19.3
2022-12-20T03:05:22.503Z,18.5
2022-12-20T03:06:38.797Z,17.9
2022-12-20T03:07:55.089Z,18.9
2022-12-20T03:09:11.383Z,20.4
2022-12-20T03:10:27.675Z,19.6
2022-12-20T03:11:43.974Z,20.4
2022-12-20T03:13:00.278Z,20.8
2022-12-20T03:14:16.570Z,19.3
2022-12-20T03:15:32.860Z,21.7
2022-12-20T03:16:49.147Z,19.7
2022-12-20T03:18:05.439Z,21.1
2022-12-20T03:19:20.759Z,19.5
2022-12-20T03:20:37.062Z,20.7
2022-12-20T03:21:53.340Z,19.2
2022-12-20T03:23:09.639Z,17.9
2022-12-20T03:24:25.937Z,20.4
2022-12-20T03:25:42.221Z,22.1
2022-12-20T03:26:58.518Z,20.5
2022-12-20T03:28:14.818Z,22.2
2022-12-20T03:29:31.105Z,22.9
2022-12-20T03:30:47.402Z,21.5
2022-12-20T03:32:03.701Z,20.9
2022-12-20T03:33:19.992Z,20
2022-12-20T03:34:36.282Z,22.4
2022-12-20T03:35:51.598Z,21.3
2022-12-20T03:37:07.904Z,20.8
2022-12-20T03:38:24.192Z,21.2
2022-12-20T03:39:40.479Z,20.6
2022-12-20T03:40:56.779Z,20
2022-12-20T03:42:13.073Z,22
2022-12-20T03:43:29.372Z,23.1
2022-12-20T03:44:45.656Z,20.3
2022-12-20T03:46:01.945Z,19.3
2022-12-20T03:47:18.244Z,24.2
2022-12-20T03:48:34.544Z,22.4
2022-12-20T03:49:50.846Z,22.8
2022-12-20T03:51:07.133Z,23.2
2022-12-20T03:52:22.443Z,22.3
2022-12-20T03:53:38.746Z,22.6
2022-12-20T03:54:55.037Z,23.1
2022-12-20T03:56:11.316Z,24.1
2022-12-20T03:57:27.620Z,23.2
2022-12-20T03:58:43.912Z,23.3
2022-12-20T04:00:00.204Z,25.6
2022-12-20T04:01:16.508Z,27.1
2022-12-20T04:02:32.793Z,21.2
2022-12-20T04:03:49.086Z,23.7
2022-12-20T04:05:05.390Z,20
2022-12-20T04:06:21.672Z,22.7
2022-12-20T04:07:37.981Z,22.2
2022-12-20T04:08:53.282Z,25
2022-12-20T04:10:09.573Z,21.9
2022-12-20T04:11:25.876Z,23.7
2022-12-20T04:12:42.160Z,23.9
2022-12-20T04:13:58.470Z,22.8
2022-12-20T04:15:14.757Z,21.1
2022-12-20T04:16:31.054Z,23
2022-12-20T04:17:47.350Z,23.7
2022-12-20T04:19:03.642Z,22
2022-12-20T04:20:19.944Z,22.2
2022-12-20T04:21:36.236Z,24.4
2022-12-20T04:22:52.529Z,21.5
2022-12-20T04:24:08.815Z,18.8
2022-12-20T04:25:24.123Z,20.5
2022-12-20T04:26:40.422Z,20.8
2022-12-20T04:27:56.717Z,22
2022-12-20T04:29:13.005Z,19.1
2022-12-20T04:30:29.310Z,23.2
2022-12-20T04:31:45.607Z,21.4
2022-12-20T04:33:01.890Z,20.3
2022-12-20T04:34:18.183Z,20.6
2022-12-20T04:35:34.485Z,20.5
2022-12-20T04:36:50.778Z,20.5
2022-12-20T04:38:07.077Z,21.2
2022-12-20T04:39:23.373Z,21.2
2022-12-20T04:40:39.658Z,21.1
2022-12-20T04:41:54.967Z,21.6
2022-12-20T04:43:11.263Z,23.1
2022-12-20T04:44:27.566Z,20.6
2022-12-20T04:45:43.867Z,21.4
2022-12-20T04:47:00.154Z,22.1
2022-12-20T04:48:16.450Z,20.3
2022-12-20T04:49:32.730Z,20.9
2022-12-20T04:50:49.038Z,20.8
2022-12-20T04:52:05.331Z,18.5
2022-12-20T04:53:21.625Z,20.8
2022-12-20T04:54:37.925Z,19
2022-12-20T04:55:54.219Z,20.5
2022-12-20T04:57:10.506Z,21.5
2022-12-20T04:58:25.818Z,20.2
2022-12-20T04:59:42.109Z,19.4
2022-12-20T05:00:58.415Z,19.5
2022-12-20T05:02:14.709Z,19.9
2022-12-20T05:03:30.984Z,21
2022-12-20T05:04:47.291Z,21.3
2022-12-20T05:06:03.590Z,22
2022-12-20T05:07:19.868Z,19.7
2022-12-20T05:08:36.165Z,20.7
2022-12-20T05:09:52.462Z,20.9
2022-12-20T05:11:08.762Z,17.7
2022-12-20T05:12:25.050Z,19.6
2022-12-20T05:13:41.353Z,21
2022-12-20T05:14:57.771Z,19.4
2022-12-20T05:16:14.067Z,19.2
2022-12-20T05:17:30.351Z,20.6
2022-12-20T05:18:46.642Z,20.7
2022-12-20T05:20:02.937Z,19.6
2022-12-20T05:21:19.233Z,20.3
2022-12-20T05:22:35.539Z,19.8
2022-12-20T05:23:51.832Z,19.4
2022-12-20T05:25:08.123Z,20
2022-12-20T05:26:24.407Z,19.3
2022-12-20T05:27:40.714Z,19.3
2022-12-20T05:28:56.000Z,18.5
2022-12-20T05:30:13.295Z,17.3
2022-12-20T05:31:28.613Z,18.8
2022-12-20T05:32:44.906Z,18.8
2022-12-20T05:34:01.194Z,18.5
2022-12-20T05:35:17.486Z,17.7
2022-12-20T05:36:33.790Z,18.2
2022-12-20T05:37:50.077Z,20.3
2022-12-20T05:39:06.363Z,17.1
2022-12-20T05:40:22.658Z,19.3
2022-12-20T05:41:38.953Z,17.8
2022-12-20T05:42:55.256Z,16.6
2022-12-20T05:44:11.550Z,18.7
2022-12-20T05:45:27.838Z,17.1
2022-12-20T05:46:44.135Z,21.1
2022-12-20T05:47:59.454Z,18.4
2022-12-20T05:49:15.741Z,20.1
2022-12-20T05:50:32.027Z,16.3
2022-12-20T05:51:48.338Z,19.1
2022-12-20T05:53:04.634Z,17.6
2022-12-20T05:54:20.918Z,19
2022-12-20T05:55:37.210Z,17.3
2022-12-20T05:56:53.512Z,17.1
2022-12-20T05:58:09.815Z,20.1
2022-12-20T05:59:26.091Z,21
2022-12-20T06:01:58.678Z,17.3
2022-12-20T06:03:14.975Z,19.6
2022-12-20T06:04:30.289Z,18.7
2022-12-20T06:05:46.582Z,17.4
2022-12-20T06:07:02.886Z,18.3
2022-12-20T06:08:19.183Z,18.5
2022-12-20T06:09:35.472Z,19.3
2022-12-20T06:10:51.756Z,19
2022-12-20T06:12:08.054Z,17.3
2022-12-20T06:13:24.342Z,17.8
2022-12-20T06:14:40.649Z,20
2022-12-20T06:15:56.948Z,17.2
2022-12-20T06:17:13.237Z,17.7
2022-12-20T06:18:29.534Z,18
2022-12-20T06:19:45.823Z,16.7
2022-12-20T06:21:01.131Z,17.2
2022-12-20T06:22:17.435Z,18.2
2022-12-20T06:23:33.730Z,18.5
2022-12-20T06:24:50.013Z,16.8
2022-12-20T06:26:06.305Z,18.9
2022-12-20T06:27:22.608Z,17.8
2022-12-20T06:28:38.906Z,18.2
2022-12-20T06:29:55.185Z,18.1
2022-12-20T06:31:11.495Z,16.1
2022-12-20T06:32:27.776Z,18.9
2022-12-20T06:33:44.068Z,18.8
2022-12-20T06:35:00.362Z,18.6
2022-12-20T06:36:16.674Z,19.8
2022-12-20T06:37:31.973Z,18.7
2022-12-20T06:38:48.264Z,19.4
2022-12-20T06:40:04.515Z,21.5
2022-12-20T06:41:20.800Z,17.9
2022-12-20T06:42:37.051Z,17.8
2022-12-20T06:43:53.286Z,19.8
2022-12-20T06:45:09.526Z,19.2
2022-12-20T06:46:25.767Z,19.1
2022-12-20T06:47:42.020Z,18.6
2022-12-20T06:48:58.265Z,18.3
2022-12-20T06:50:14.515Z,17
2022-12-20T06:51:30.744Z,17
2022-12-20T06:52:46.993Z,18.8
2022-12-20T06:54:02.241Z,17
2022-12-20T06:55:18.486Z,17.7
2022-12-20T06:56:34.727Z,18
2022-12-20T06:57:50.970Z,18.7
2022-12-20T06:59:07.206Z,17.2
2022-12-20T07:00:23.458Z,17.6
2022-12-20T07:01:38.709Z,18.9
2022-12-20T07:02:54.939Z,19
2022-12-20T07:04:11.196Z,18
2022-12-20T07:05:27.432Z,18.5
2022-12-20T07:06:43.676Z,19.1
2022-12-20T07:07:59.910Z,19.6
2022-12-20T07:09:16.163Z,17.7
2022-12-20T07:10:32.395Z,19.2
2022-12-20T07:11:48.641Z,19.4
2022-12-20T07:13:04.882Z,19.9
2022-12-20T07:14:21.107Z,18.8
2022-12-20T07:15:37.361Z,20.3
2022-12-20T07:16:53.601Z,20.8
2022-12-20T07:18:08.856Z,18
2022-12-20T07:19:25.085Z,18.6
2022-12-20T07:20:41.336Z,18.4
2022-12-20T07:21:57.572Z,18.4
2022-12-20T07:23:13.801Z,18.1
2022-12-20T07:24:30.061Z,20.8
2022-12-20T07:25:46.287Z,17.5
2022-12-20T07:27:02.535Z,17.1
2022-12-20T07:28:18.768Z,19.9
2022-12-20T07:29:35.018Z,19
2022-12-20T07:30:51.253Z,20.8
2022-12-20T07:32:07.484Z,18.1
2022-12-20T07:34:39.973Z,19
2022-12-20T07:35:55.224Z,18.2
2022-12-20T07:37:11.471Z,18.7
2022-12-20T07:38:27.719Z,18.7
2022-12-20T07:39:43.956Z,18.8
2022-12-20T07:41:00.190Z,17
2022-12-20T07:42:16.423Z,19.1
2022-12-20T07:43:32.672Z,18.7
2022-12-20T07:44:48.907Z,18.5
2022-12-20T07:46:05.156Z,17.5
2022-12-20T07:47:21.389Z,19.6
2022-12-20T07:48:37.630Z,18.7
2022-12-20T07:49:53.875Z,16.5
2022-12-20T07:51:10.107Z,18.1
2022-12-20T07:52:25.375Z,16.8
2022-12-20T07:53:41.616Z,16.5
2022-12-20T07:54:57.857Z,16.9
2022-12-20T07:56:14.091Z,17.3
2022-12-20T07:57:30.328Z,16.6
2022-12-20T07:58:46.569Z,17.1
2022-12-20T08:00:02.805Z,19
2022-12-20T08:01:19.046Z,16.8
2022-12-20T08:02:35.304Z,17.9
2022-12-20T08:03:51.532Z,17.3
2022-12-20T08:05:07.786Z,17.5
2022-12-20T08:06:24.006Z,17.2
2022-12-20T08:07:40.251Z,19.2
2022-12-20T08:08:55.509Z,16.4
2022-12-20T08:10:11.752Z,17.8
2022-12-20T08:11:27.991Z,17.1
2022-12-20T08:12:44.235Z,16.1
2022-12-20T08:14:00.477Z,18
2022-12-20T08:15:16.730Z,17
2022-12-20T08:16:32.952Z,18.5
2022-12-20T08:17:49.202Z,16.2
2022-12-20T08:19:05.447Z,17.3
2022-12-20T08:20:21.671Z,17
2022-12-20T08:21:37.914Z,16
2022-12-20T08:22:54.150Z,16.3
2022-12-20T08:24:10.395Z,15.1
2022-12-20T08:25:25.650Z,17.2
2022-12-20T08:26:41.903Z,16.2
2022-12-20T08:27:58.146Z,17
2022-12-20T08:29:14.364Z,15.7
2022-12-20T08:30:30.607Z,16.9
2022-12-20T08:31:46.846Z,14.9
2022-12-20T08:33:03.105Z,17.5
2022-12-20T08:34:19.335Z,15.6
2022-12-20T08:35:35.579Z,15.9
2022-12-20T08:36:51.817Z,18.2
2022-12-20T08:38:08.057Z,20.7
2022-12-20T08:39:24.298Z,20.2
2022-12-20T08:40:40.532Z,16.2
2022-12-20T08:41:55.799Z,16.4
2022-12-20T08:43:12.042Z,18
2022-12-20T08:44:28.272Z,17.7
2022-12-20T08:45:44.508Z,18.1
2022-12-20T08:47:00.764Z,15.8
2022-12-20T08:48:16.992Z,16.8
2022-12-20T08:49:33.245Z,17.6
2022-12-20T08:50:49.466Z,16.8
2022-12-20T08:52:05.708Z,15.7
2022-12-20T08:53:21.966Z,16.6
2022-12-20T08:54:38.198Z,16.6
2022-12-20T08:55:54.452Z,17.3
2022-12-20T08:57:10.667Z,17
2022-12-20T08:58:25.935Z,17.7
2022-12-20T08:59:42.180Z,17.4
2022-12-20T09:00:58.428Z,19.1
2022-12-20T09:02:14.649Z,16.9
2022-12-20T09:03:30.898Z,15.9
2022-12-20T09:06:03.381Z,13.9
2022-12-20T09:07:19.606Z,16.1
2022-12-20T09:08:35.858Z,18.6
2022-12-20T09:09:52.103Z,17.6
2022-12-20T09:11:08.329Z,15.5
2022-12-20T09:12:24.568Z,16.6
2022-12-20T09:13:40.820Z,16
2022-12-20T09:14:57.183Z,16
2022-12-20T09:16:13.424Z,16.5
2022-12-20T09:17:29.657Z,16.3
2022-12-20T09:18:45.894Z,15.5
2022-12-20T09:20:02.129Z,14.4
2022-12-20T09:21:18.372Z,18.6
2022-12-20T09:22:34.617Z,17.6
2022-12-20T09:23:50.850Z,15.5
2022-12-20T09:25:07.112Z,16.4
2022-12-20T09:26:23.334Z,18.3
2022-12-20T09:27:39.575Z,16
2022-12-20T09:28:55.824Z,18.1
2022-12-20T09:30:12.072Z,16.5
2022-12-20T09:31:27.315Z,16.4
2022-12-20T09:32:43.553Z,15.5
2022-12-20T09:33:59.789Z,16.3
2022-12-20T09:35:16.044Z,18.2
2022-12-20T09:36:32.287Z,16.6
2022-12-20T09:37:48.516Z,15.9
2022-12-20T09:39:04.771Z,17
2022-12-20T09:40:20.994Z,15.9
2022-12-20T09:41:37.230Z,16.8
2022-12-20T09:42:53.474Z,17.1
2022-12-20T09:44:09.723Z,17.4
2022-12-20T09:45:25.959Z,18
2022-12-20T09:46:42.214Z,17.6
2022-12-20T09:47:57.451Z,16.3
2022-12-20T09:49:13.693Z,16.9
2022-12-20T09:50:29.942Z,18
2022-12-20T09:51:46.179Z,17.6
2022-12-20T09:53:02.421Z,15.8
2022-12-20T09:54:18.673Z,15.6
2022-12-20T09:55:34.891Z,13.9
2022-12-20T09:56:51.137Z,17.3
2022-12-20T09:58:07.382Z,17.4
2022-12-20T09:59:23.628Z,15.1
2022-12-20T10:00:39.857Z,15.5
2022-12-20T10:01:56.109Z,15.7
2022-12-20T10:03:12.347Z,15.2
2022-12-20T10:04:27.593Z,18.7
2022-12-20T10:05:43.839Z,16.7
2022-12-20T10:07:00.083Z,15.5
2022-12-20T10:08:16.324Z,15.1
2022-12-20T10:09:32.576Z,16.2
2022-12-20T10:10:48.815Z,15.6
2022-12-20T10:12:05.000Z,14.5
2022-12-20T10:13:21.273Z,16.6
2022-12-20T10:14:37.522Z,15.8
2022-12-20T10:15:53.765Z,14.8
2022-12-20T10:17:10.001Z,15.1
2022-12-20T10:18:26.242Z,16.4
2022-12-20T10:19:42.479Z,15.7
2022-12-20T10:20:57.726Z,16.3
2022-12-20T10:22:13.979Z,15.5
2022-12-20T10:23:30.217Z,14.9
2022-12-20T10:24:46.449Z,14.8
2022-12-20T10:26:02.704Z,14.5
2022-12-20T10:27:18.935Z,15.2
2022-12-20T10:28:35.178Z,16
2022-12-20T10:29:51.425Z,14.7
2022-12-20T10:31:07.656Z,14.7
2022-12-20T10:32:23.904Z,15.6
2022-12-20T10:33:40.142Z,15.3
2022-12-20T10:34:56.376Z,15.9
2022-12-20T10:36:12.609Z,14.3
2022-12-20T10:37:27.875Z,14.4
2022-12-20T10:38:44.116Z,17
2022-12-20T10:40:00.360Z,15.5
2022-12-20T10:41:16.601Z,13.5
2022-12-20T10:42:32.826Z,14.5
2022-12-20T10:43:49.080Z,14.2
2022-12-20T10:45:05.318Z,13.9
2022-12-20T10:46:21.564Z,12.9
2022-12-20T10:47:37.787Z,14.8
2022-12-20T10:48:54.036Z,13.5
2022-12-20T10:50:10.280Z,14
2022-12-20T10:51:26.519Z,14.6
2022-12-20T10:52:42.763Z,14.4
2022-12-20T10:53:58.003Z,13.7
2022-12-20T10:55:14.254Z,14.4
2022-12-20T10:56:30.501Z,14.2
2022-12-20T10:57:46.733Z,13.6
2022-12-20T10:59:02.990Z,13.9
2022-12-20T11:00:19.213Z,12.5
2022-12-20T11:01:35.464Z,16.5
2022-12-20T11:02:51.707Z,12.1
2022-12-20T11:04:07.941Z,12.8
2022-12-20T11:05:24.182Z,15.1
2022-12-20T11:06:40.408Z,13.1
2022-12-20T11:07:56.654Z,12.7
2022-12-20T11:09:12.899Z,13.5
2022-12-20T11:10:28.159Z,12.2
2022-12-20T11:11:44.395Z,13.9
2022-12-20T11:13:00.627Z,13.2
2022-12-20T11:14:16.883Z,13.8
2022-12-20T11:15:33.123Z,12.2
2022-12-20T11:16:48.372Z,13.4
2022-12-20T11:18:04.604Z,13.8
2022-12-20T11:19:20.859Z,13.6
2022-12-20T11:20:37.087Z,13.6
2022-12-20T11:21:53.337Z,13.7
2022-12-20T11:23:09.586Z,13.3
2022-12-20T11:24:25.833Z,13.9
2022-12-20T11:25:42.056Z,13.9
2022-12-20T11:26:58.289Z,12.8
2022-12-20T11:28:14.537Z,12.8
2022-12-20T11:29:30.775Z,13.6
2022-12-20T11:30:47.025Z,13.8
2022-12-20T11:32:03.257Z,13.3
2022-12-20T11:33:18.507Z,12.5
2022-12-20T11:34:34.747Z,13.8
2022-12-20T11:35:50.987Z,15.2
2022-12-20T11:37:07.230Z,12.7
2022-12-20T11:38:23.476Z,13.8
2022-12-20T11:39:39.718Z,15.1
2022-12-20T11:40:55.954Z,15.2
2022-12-20T11:42:12.194Z,13.3
2022-12-20T11:43:28.425Z,14.7
2022-12-20T11:44:44.684Z,14.4
2022-12-20T11:46:00.923Z,12.4
2022-12-20T11:47:17.156Z,13.7
2022-12-20T11:48:33.395Z,14.2
2022-12-20T11:49:48.653Z,13.9
2022-12-20T11:51:04.898Z,13.1
2022-12-20T11:52:21.128Z,13.4
2022-12-20T11:53:37.374Z,12.9
2022-12-20T11:54:53.619Z,13.3
2022-12-20T11:56:09.849Z,13.7
2022-12-20T11:57:26.085Z,12.3
2022-12-20T11:58:42.327Z,13.3
2022-12-20T11:59:58.580Z,13.9
2022-12-20T12:01:14.818Z,14.9
2022-12-20T12:02:31.047Z,13.7
2022-12-20T12:03:47.294Z,14.1
2022-12-20T12:05:03.535Z,14.1
2022-12-20T12:06:18.793Z,12.9
2022-12-20T12:07:35.033Z,13.9
2022-12-20T12:08:51.262Z,14.3
2022-12-20T12:10:07.517Z,13.8
2022-12-20T12:11:23.747Z,14.1
2022-12-20T12:12:39.992Z,14.4
2022-12-20T12:13:56.222Z,14.1
2022-12-20T12:15:12.477Z,13.2
2022-12-20T12:16:28.721Z,12.9
2022-12-20T12:17:44.948Z,12.9
2022-12-20T12:19:01.198Z,13.9
2022-12-20T12:20:17.444Z,13.1
2022-12-20T12:21:33.675Z,14.5
2022-12-20T12:22:48.939Z,14.2
2022-12-20T12:24:05.161Z,15
2022-12-20T12:25:21.410Z,14
2022-12-20T12:26:37.649Z,13.2
2022-12-20T12:27:53.900Z,14.4
2022-12-20T12:29:10.133Z,13.8
2022-12-20T12:30:26.371Z,15.8
2022-12-20T12:31:42.606Z,13.9
2022-12-20T12:32:58.845Z,12.7
2022-12-20T12:34:15.096Z,13.6
2022-12-20T12:35:31.325Z,13.7
2022-12-20T12:36:47.575Z,14.6
2022-12-20T12:38:03.800Z,14.2
2022-12-20T12:39:19.074Z,12.7
2022-12-20T12:40:35.303Z,12.6
2022-12-20T12:41:51.539Z,14.4
2022-12-20T12:43:07.794Z,13.2
2022-12-20T12:44:24.017Z,13.7
2022-12-20T12:45:40.275Z,13.1
2022-12-20T12:46:56.524Z,13.3
2022-12-20T12:48:12.752Z,14.9
2022-12-20T12:49:28.992Z,15.3
2022-12-20T12:50:45.227Z,13
2022-12-20T12:52:01.473Z,13.4
2022-12-20T12:53:17.704Z,13.8
2022-12-20T12:54:33.944Z,12.8
2022-12-20T12:55:49.213Z,14.1
2022-12-20T12:57:05.448Z,14.2
2022-12-20T12:58:21.676Z,14.7
2022-12-20T12:59:37.930Z,14.1
2022-12-20T13:00:54.163Z,13.5
2022-12-20T13:02:10.396Z,14.2
2022-12-20T13:03:26.661Z,12.3
2022-12-20T13:04:42.886Z,12.1
2022-12-20T13:05:59.123Z,14
2022-12-20T13:07:15.373Z,14.3
2022-12-20T13:08:31.613Z,14.1
2022-12-20T13:09:47.846Z,13.5
2022-12-20T13:11:04.092Z,14
2022-12-20T13:12:19.349Z,14.7
2022-12-20T13:13:35.591Z,12.6
2022-12-20T13:14:51.836Z,13.4
2022-12-20T13:17:24.297Z,13
2022-12-20T13:18:40.552Z,14.1
2022-12-20T13:19:56.786Z,13.7
2022-12-20T13:21:13.030Z,13.7
2022-12-20T13:22:29.270Z,13.1
2022-12-20T13:23:45.508Z,13.1
2022-12-20T13:25:01.748Z,12.9
2022-12-20T13:26:18.008Z,12.7
2022-12-20T13:27:34.216Z,12.9
2022-12-20T13:28:49.480Z,14.7
2022-12-20T13:30:05.725Z,14
2022-12-20T13:31:21.959Z,14.3
2022-12-20T13:32:38.221Z,13.9
2022-12-20T13:33:54.440Z,14.2
2022-12-20T13:35:10.691Z,12.4
2022-12-20T13:36:26.915Z,13.5
2022-12-20T13:37:43.159Z,13.1
2022-12-20T13:38:59.409Z,16.3
2022-12-20T13:40:15.648Z,14.8
2022-12-20T13:41:31.893Z,14.1
2022-12-20T13:42:48.134Z,14.6
2022-12-20T13:44:04.371Z,13.5
2022-12-20T13:45:19.631Z,15
2022-12-20T13:46:35.874Z,14
2022-12-20T13:47:52.094Z,14.5
2022-12-20T13:49:08.350Z,12.9
2022-12-20T13:50:24.601Z,14.6
2022-12-20T13:51:40.820Z,14.2
2022-12-20T13:52:57.065Z,13.3
2022-12-20T13:54:13.303Z,14.5
2022-12-20T13:55:29.547Z,12.9
2022-12-20T13:56:45.793Z,12.9
2022-12-20T13:58:02.000Z,15.2
2022-12-20T13:59:18.277Z,13.8
2022-12-20T14:00:34.498Z,13.9
2022-12-20T14:01:49.756Z,13.3
2022-12-20T14:03:06.002Z,12.3
2022-12-20T14:04:22.248Z,12.9
2022-12-20T14:05:38.482Z,12.7
2022-12-20T14:06:54.735Z,12
2022-12-20T14:08:10.970Z,12.7
2022-12-20T14:09:27.193Z,12.9
2022-12-20T14:10:43.454Z,13.3
2022-12-20T14:11:59.688Z,13.6
2022-12-20T14:13:15.933Z,12.8
2022-12-20T14:14:32.156Z,12.3
2022-12-20T14:15:48.411Z,12.3
2022-12-20T14:17:04.636Z,11.4
2022-12-20T14:18:19.890Z,12
2022-12-20T14:19:36.143Z,11.6
2022-12-20T14:20:52.373Z,12.1
2022-12-20T14:22:08.616Z,13.5
2022-12-20T14:23:24.862Z,13
2022-12-20T14:24:41.103Z,11.7
2022-12-20T14:25:57.345Z,12.7
2022-12-20T14:27:13.586Z,13.9
2022-12-20T14:28:29.813Z,12.7
2022-12-20T14:29:46.068Z,12
2022-12-20T14:31:02.312Z,12.5
2022-12-20T14:32:18.543Z,11.7
2022-12-20T14:33:34.778Z,12.6
2022-12-20T14:34:50.037Z,12.2
2022-12-20T14:36:06.269Z,11.1
2022-12-20T14:37:22.534Z,11.7
2022-12-20T14:38:38.761Z,12
2022-12-20T14:39:55.015Z,11.2
2022-12-20T14:41:11.237Z,12.4
2022-12-20T14:42:27.480Z,13
2022-12-20T14:43:43.724Z,13.2
2022-12-20T14:44:59.968Z,13.9
2022-12-20T14:46:16.202Z,14
2022-12-20T14:47:32.435Z,14.4
2022-12-20T14:48:48.686Z,15
2022-12-20T14:50:04.918Z,13.1
2022-12-20T14:51:20.180Z,13.6
2022-12-20T14:52:36.422Z,13.3
2022-12-20T14:53:52.656Z,13.2
2022-12-20T14:55:08.889Z,12.5
2022-12-20T14:56:25.155Z,13.4
2022-12-20T14:57:41.385Z,13.4
2022-12-20T14:58:57.629Z,11.7
2022-12-20T15:00:13.868Z,12.8
2022-12-20T15:01:30.104Z,13.1
2022-12-20T15:02:46.341Z,13.1
2022-12-20T15:04:02.586Z,14.3
2022-12-20T15:05:18.834Z,14.1
2022-12-20T15:06:35.060Z,16.5
2022-12-20T15:07:50.319Z,14.2
2022-12-20T15:09:06.551Z,14.5
2022-12-20T15:10:22.794Z,12.9
2022-12-20T15:11:39.049Z,13.1
2022-12-20T15:12:55.283Z,14.9
2022-12-20T15:14:11.529Z,13.7
2022-12-20T15:15:27.755Z,12.5
2022-12-20T15:16:43.991Z,12.2
2022-12-20T15:18:00.249Z,12.8
2022-12-20T15:19:16.477Z,12.5
2022-12-20T15:20:32.715Z,15
2022-12-20T15:21:48.958Z,14.5
2022-12-20T15:23:05.201Z,14.1
2022-12-20T15:24:20.453Z,14.5
2022-12-20T15:25:36.701Z,13.7
2022-12-20T15:26:52.942Z,15
2022-12-20T15:28:09.224Z,13.6
2022-12-20T15:29:25.537Z,14.3
2022-12-20T15:30:41.814Z,14.9
2022-12-20T15:31:57.132Z,15.1
2022-12-20T15:33:13.425Z,14.2
2022-12-20T15:34:29.734Z,13.3
2022-12-20T15:35:46.012Z,15.2
2022-12-20T15:37:02.323Z,12.7
2022-12-20T15:38:18.603Z,13
2022-12-20T15:39:34.898Z,13.5
2022-12-20T15:40:51.203Z,14.1
2022-12-20T15:42:07.494Z,16.1
2022-12-20T15:43:23.787Z,14.9
2022-12-20T15:44:40.080Z,13.9
2022-12-20T15:45:56.365Z,13.1
2022-12-20T15:47:12.687Z,14.1
2022-12-20T15:48:27.975Z,14.3
2022-12-20T15:49:44.271Z,15
2022-12-20T15:51:00.561Z,14.9
2022-12-20T15:52:16.870Z,14.9
2022-12-20T15:53:33.157Z,15.6
2022-12-20T15:54:49.443Z,16.1
2022-12-20T15:56:05.744Z,18.1
2022-12-20T15:57:22.031Z,14.5
2022-12-20T15:58:38.322Z,13.9
2022-12-20T15:59:54.635Z,15.3
2022-12-20T16:01:10.916Z,13.6
2022-12-20T16:02:27.213Z,17.3
2022-12-20T16:03:43.519Z,17.6
2022-12-20T16:04:58.813Z,19.3
2022-12-20T16:06:15.128Z,18.1
2022-12-20T16:07:31.400Z,18.9
2022-12-20T16:08:47.709Z,14.2
2022-12-20T16:10:04.003Z,13.6
2022-12-20T16:11:20.298Z,13
2022-12-20T16:12:36.599Z,14
2022-12-20T16:13:52.897Z,12.6
2022-12-20T16:15:09.167Z,13.8
2022-12-20T16:16:25.463Z,15.2
2022-12-20T16:17:41.765Z,11.3
2022-12-20T16:18:58.058Z,19.1
2022-12-20T16:20:14.343Z,14.1
2022-12-20T16:21:29.660Z,13.6
2022-12-20T16:22:45.948Z,16.7
2022-12-20T16:24:02.257Z,12.4
2022-12-20T16:25:18.534Z,14.4
2022-12-20T16:26:34.827Z,13.9
2022-12-20T16:27:51.134Z,18.5
2022-12-20T16:29:07.427Z,13.4
2022-12-20T16:30:23.729Z,12.3
2022-12-20T16:31:40.019Z,13.4
2022-12-20T16:32:56.321Z,13.7
2022-12-20T16:34:12.607Z,13
2022-12-20T16:35:28.911Z,13.2
2022-12-20T16:36:45.183Z,13.6
2022-12-20T16:38:00.498Z,12.3
2022-12-20T16:39:16.804Z,13.7
2022-12-20T16:40:33.087Z,13.2
2022-12-20T16:41:49.376Z,15.3
2022-12-20T16:43:05.693Z,15
2022-12-20T16:44:21.987Z,13.5
2022-12-20T16:45:38.263Z,12.6
2022-12-20T16:46:54.556Z,13.6
2022-12-20T16:48:10.870Z,12.4
2022-12-20T16:49:27.155Z,13.6
2022-12-20T16:50:43.450Z,12.6
2022-12-20T16:51:59.743Z,12.2
2022-12-20T16:53:16.026Z,13.1
2022-12-20T16:54:31.348Z,13
2022-12-20T16:55:47.655Z,13.2
2022-12-20T16:57:03.924Z,13.3
2022-12-20T16:58:20.236Z,13.1
2022-12-20T16:59:36.509Z,13
2022-12-20T17:00:52.820Z,17.7
2022-12-20T17:02:09.123Z,14.9
2022-12-20T17:03:25.418Z,13.6
2022-12-20T17:04:41.696Z,12.6
2022-12-20T17:05:57.983Z,14
2022-12-20T17:07:14.291Z,14.1
2022-12-20T17:09:46.869Z,13.9
2022-12-20T17:11:02.175Z,13.1